Time;durP1;ratioP1;P1;durP2;ratioP2;P2;SDS_P1;SDS_P2;PMS_P1;PMS_P2;Temp;Humidity;BMP_temperature;BMP_pressure;BME280_temperature;BME280_humidity;BME280_pressure;Samples;Min_cycle;Max_cycle;Signal;HPM_P1;HPM_P2
2022/09/20 00:00:26;;;;;;;;;2.50;1.00;;;;;10.47;78.40;100382.19;5032695;28;8829;-63
2022/09/20 00:02:53;;;;;;;;;1.00;0.00;;;;;10.47;78.08;100392.84;5033035;28;8837;-62
2022/09/20 00:05:21;;;;;;;;;1.00;1.00;;;;;10.48;78.48;100393.72;5032808;28;8825;-62
2022/09/20 00:07:49;;;;;;;;;1.00;0.75;;;;;10.47;77.84;100392.00;5032882;28;8833;-62
2022/09/20 00:10:17;;;;;;;;;0.25;0.25;;;;;10.44;78.38;100390.41;5032641;28;8861;-61
2022/09/20 00:12:45;;;;;;;;;1.00;0.75;;;;;10.41;78.17;100395.09;5034004;28;8832;-61
2022/09/20 00:15:13;;;;;;;;;0.00;0.00;;;;;10.36;78.39;100394.56;5035396;28;8844;-61
2022/09/20 00:17:41;;;;;;;;;0.75;0.75;;;;;10.33;78.33;100397.47;5036514;28;8810;-61
2022/09/20 00:20:09;;;;;;;;;1.00;1.00;;;;;10.29;78.53;100401.28;5036558;28;8909;-61
2022/09/20 00:22:36;;;;;;;;;0.75;0.50;;;;;10.27;78.81;100401.44;5036403;28;8963;-61
2022/09/20 00:25:04;;;;;;;;;0.50;0.50;;;;;10.24;78.73;100392.81;5036028;28;9509;-61
2022/09/20 00:27:32;;;;;;;;;1.00;0.00;;;;;10.22;78.77;100402.69;5036111;28;8905;-61
2022/09/20 00:30:00;;;;;;;;;0.75;0.75;;;;;10.18;78.76;100402.06;5036062;28;8821;-61
2022/09/20 00:32:27;;;;;;;;;0.75;0.75;;;;;10.17;78.92;100392.38;5035876;28;8821;-61
2022/09/20 00:35:09;;;;;;;;;1.00;1.00;;;;;10.15;79.23;100390.78;5036114;28;8832;-61
2022/09/20 00:37:37;;;;;;;;;0.00;0.00;;;;;10.13;79.06;100395.34;5036093;28;8825;-63
2022/09/20 00:40:05;;;;;;;;;1.00;0.00;;;;;10.12;78.79;100394.53;5035897;28;8845;-61
2022/09/20 00:42:33;;;;;;;;;1.00;1.00;;;;;10.09;79.11;100402.72;5036008;28;8835;-62
2022/09/20 00:45:00;;;;;;;;;0.50;0.50;;;;;10.09;79.30;100404.53;5035869;28;8897;-62
2022/09/20 00:47:28;;;;;;;;;1.00;0.50;;;;;10.13;78.77;100404.22;5035211;28;8825;-62
2022/09/20 00:49:55;;;;;;;;;1.00;1.00;;;;;10.19;78.43;100395.81;5035905;28;8832;-62
2022/09/20 00:52:23;;;;;;;;;1.00;1.00;;;;;10.26;78.29;100404.19;5036218;28;8844;-62
2022/09/20 00:54:51;;;;;;;;;1.00;1.00;;;;;10.31;78.56;100400.22;5035582;28;8878;-61
2022/09/20 00:57:18;;;;;;;;;0.00;0.00;;;;;10.36;78.48;100403.44;5035530;28;8837;-62
2022/09/20 00:59:46;;;;;;;;;0.00;0.00;;;;;10.38;78.09;100395.31;5035597;28;9478;-62
2022/09/20 01:02:14;;;;;;;;;1.00;1.00;;;;;10.41;78.06;100392.44;5035135;28;8817;-62
2022/09/20 01:04:42;;;;;;;;;1.00;1.00;;;;;10.42;78.17;100395.00;5034886;28;8864;-62
2022/09/20 01:07:10;;;;;;;;;1.50;1.00;;;;;10.46;78.26;100393.81;5035183;28;8895;-62
2022/09/20 01:09:37;;;;;;;;;1.00;1.00;;;;;10.49;77.86;100396.28;5035237;28;8905;-62
2022/09/20 01:12:05;;;;;;;;;1.00;1.00;;;;;10.53;77.54;100394.22;5035648;28;8857;-62
2022/09/20 01:14:32;;;;;;;;;1.00;1.00;;;;;10.55;77.67;100387.81;5035490;28;8825;-62
2022/09/20 01:17:00;;;;;;;;;1.00;1.00;;;;;10.56;77.62;100386.84;5035426;28;8863;-62
2022/09/20 01:19:29;;;;;;;;;0.00;0.00;;;;;10.55;77.65;100390.47;5035275;28;8813;-62
2022/09/20 01:21:57;;;;;;;;;1.00;1.00;;;;;10.53;78.03;100391.53;5035512;28;8829;-62
2022/09/20 01:24:24;;;;;;;;;1.00;1.00;;;;;10.49;78.25;100392.75;5034552;28;8825;-62
2022/09/20 01:26:52;;;;;;;;;1.00;1.00;;;;;10.44;78.05;100398.41;5035526;28;8829;-62
2022/09/20 01:29:20;;;;;;;;;1.00;1.00;;;;;10.41;78.14;100390.63;5035567;28;8925;-62
2022/09/20 01:31:47;;;;;;;;;1.00;1.00;;;;;10.37;78.39;100396.28;5035306;28;8829;-62
2022/09/20 01:34:15;;;;;;;;;1.00;0.00;;;;;10.32;78.28;100399.28;5035109;28;8839;-61
2022/09/20 01:36:43;;;;;;;;;1.50;1.50;;;;;10.28;78.46;100402.25;5035383;28;9557;-62
2022/09/20 01:39:10;;;;;;;;;0.25;0.00;;;;;10.26;78.63;100398.88;5034691;28;8900;-62
2022/09/20 01:41:38;;;;;;;;;0.00;0.00;;;;;10.23;78.81;100402.59;5034972;28;8825;-62
2022/09/20 01:44:06;;;;;;;;;1.50;1.00;;;;;10.21;78.54;100391.22;5035011;28;8897;-61
2022/09/20 01:46:34;;;;;;;;;1.00;1.00;;;;;10.20;78.44;100400.16;5034856;28;8821;-61
2022/09/20 01:49:01;;;;;;;;;1.00;0.50;;;;;10.20;78.52;100408.16;5034717;28;8930;-62
2022/09/20 01:51:29;;;;;;;;;3.00;3.00;;;;;10.22;78.69;100400.03;5035252;28;8833;-61
2022/09/20 01:53:57;;;;;;;;;2.00;1.00;;;;;10.25;78.75;100405.97;5034790;28;8801;-61
2022/09/20 01:56:24;;;;;;;;;2.00;2.00;;;;;10.30;78.26;100409.19;5034761;28;8945;-62
2022/09/20 01:58:52;;;;;;;;;1.00;1.00;;;;;10.34;77.95;100410.69;5034913;28;8836;-62
2022/09/20 02:01:40;;;;;;;;;1.50;1.50;;;;;10.41;77.99;100403.09;5034518;28;8867;-61
2022/09/20 02:04:08;;;;;;;;;1.00;1.00;;;;;10.42;77.81;100408.31;5034770;28;8837;-61
2022/09/20 02:06:36;;;;;;;;;0.25;0.25;;;;;10.45;78.10;100402.75;5034558;28;8817;-62
2022/09/20 02:09:04;;;;;;;;;1.00;1.00;;;;;10.46;77.78;100401.81;5034962;28;8897;-62
2022/09/20 02:11:31;;;;;;;;;7.00;6.50;;;;;10.46;78.00;100400.97;5035040;28;8853;-62
2022/09/20 02:13:59;;;;;;;;;1.00;1.00;;;;;10.45;77.97;100397.44;5034480;28;8832;-62
2022/09/20 02:16:27;;;;;;;;;3.25;1.00;;;;;10.44;77.82;100398.41;5034363;28;8825;-61
2022/09/20 02:18:55;;;;;;;;;1.00;1.00;;;;;10.46;78.24;100401.81;5034709;28;8833;-62
2022/09/20 02:21:22;;;;;;;;;2.50;1.00;;;;;10.47;78.12;100398.16;5034607;28;8836;-61
2022/09/20 02:23:50;;;;;;;;;1.00;1.00;;;;;10.50;77.97;100407.75;5034626;28;9502;-61
2022/09/20 02:26:18;;;;;;;;;0.00;0.00;;;;;10.52;77.84;100405.81;5034572;28;8821;-62
2022/09/20 02:28:48;;;;;;;;;0.25;0.25;;;;;10.55;77.75;100395.81;5034206;28;8817;-61
2022/09/20 02:31:15;;;;;;;;;1.00;1.00;;;;;10.61;77.95;100399.88;5035035;28;8837;-62
2022/09/20 02:33:43;;;;;;;;;1.00;1.00;;;;;10.64;77.74;100399.63;5034344;28;9510;-62
2022/09/20 02:36:11;;;;;;;;;2.25;1.00;;;;;10.68;77.58;100398.44;5033897;28;8845;-62
2022/09/20 02:38:38;;;;;;;;;3.00;2.00;;;;;10.70;77.97;100402.69;5034546;28;8821;-61
2022/09/20 02:41:06;;;;;;;;;1.00;1.00;;;;;10.72;77.86;100406.13;5034227;28;8925;-61
2022/09/20 02:43:34;;;;;;;;;0.50;0.50;;;;;10.73;77.81;100412.28;5034389;28;8901;-61
2022/09/20 02:46:02;;;;;;;;;0.00;0.00;;;;;10.73;77.47;100405.16;5034408;28;8867;-62
2022/09/20 02:48:30;;;;;;;;;0.00;0.00;;;;;10.73;77.48;100399.81;5034064;28;8829;-62
2022/09/20 02:50:57;;;;;;;;;1.00;1.00;;;;;10.74;77.86;100405.97;5034080;28;8886;-61
2022/09/20 02:53:25;;;;;;;;;0.75;0.75;;;;;10.74;77.70;100409.50;5034083;28;8900;-61
2022/09/20 02:55:53;;;;;;;;;0.00;0.00;;;;;10.75;77.48;100416.53;5033866;28;8825;-62
2022/09/20 02:58:20;;;;;;;;;1.00;1.00;;;;;10.76;77.62;100410.25;5033967;28;8833;-61
2022/09/20 03:00:48;;;;;;;;;1.00;0.50;;;;;10.75;77.71;100405.88;5033503;28;8890;-61
2022/09/20 03:03:16;;;;;;;;;2.00;2.00;;;;;10.75;77.62;100407.66;5033740;28;9502;-61
2022/09/20 03:05:44;;;;;;;;;1.00;1.00;;;;;10.75;77.61;100413.88;5033796;28;8836;-61
2022/09/20 03:08:13;;;;;;;;;1.00;1.00;;;;;10.74;77.67;100404.19;5033784;28;8849;-61
2022/09/20 03:10:40;;;;;;;;;1.50;1.00;;;;;10.74;77.36;100405.97;5032520;28;8845;-62
2022/09/20 03:13:08;;;;;;;;;1.00;0.50;;;;;10.74;77.22;100403.31;5032226;28;8828;-61
2022/09/20 03:15:36;;;;;;;;;1.50;1.00;;;;;10.74;77.61;100404.19;5030187;28;8825;-62
2022/09/20 03:18:03;;;;;;;;;0.00;0.00;;;;;10.72;77.44;100408.78;5029764;28;8917;-62
2022/09/20 03:20:31;;;;;;;;;1.00;1.00;;;;;10.73;77.58;100406.94;5029797;28;9514;-62
2022/09/20 03:22:59;;;;;;;;;3.00;2.00;;;;;10.73;77.51;100407.81;5029579;28;8929;-61
2022/09/20 03:25:26;;;;;;;;;0.00;0.00;;;;;10.72;77.44;100411.44;5029334;28;8972;-61
2022/09/20 03:27:54;;;;;;;;;2.50;1.00;;;;;10.71;77.88;100408.88;5029559;28;8855;-61
2022/09/20 03:30:22;;;;;;;;;2.50;2.50;;;;;10.68;77.62;100412.59;5029559;28;8841;-62
2022/09/20 03:32:51;;;;;;;;;1.00;1.00;;;;;10.63;77.73;100406.75;5030636;28;8841;-61
2022/09/20 03:35:19;;;;;;;;;3.75;3.00;;;;;10.59;78.27;100404.44;5030553;28;8948;-62
2022/09/20 03:37:46;;;;;;;;;1.00;0.75;;;;;10.55;78.05;100403.78;5031994;28;8825;-62
2022/09/20 03:40:14;;;;;;;;;4.50;4.50;;;;;10.53;78.39;100407.53;5032474;28;9577;-61
2022/09/20 03:42:42;;;;;;;;;2.50;2.50;;;;;10.48;77.96;100399.88;5032533;28;9522;-62
2022/09/20 03:45:10;;;;;;;;;3.00;3.00;;;;;10.46;78.04;100401.81;5032116;28;8860;-62
2022/09/20 03:47:37;;;;;;;;;1.00;1.00;;;;;10.42;78.57;100400.34;5031582;28;8844;-61
2022/09/20 03:50:05;;;;;;;;;1.00;1.00;;;;;10.37;78.44;100407.78;5032308;28;8845;-62
2022/09/20 03:52:34;;;;;;;;;3.00;1.00;;;;;10.34;78.60;100402.69;5031588;28;8860;-61
2022/09/20 03:55:02;;;;;;;;;3.00;2.00;;;;;10.30;78.57;100409.19;5029724;28;8878;-61
2022/09/20 03:57:30;;;;;;;;;1.50;1.50;;;;;10.26;78.58;100407.69;5029339;28;8833;-61
2022/09/20 03:59:58;;;;;;;;;1.50;1.50;;;;;10.21;78.92;100406.31;5032090;28;8841;-62
2022/09/20 04:02:26;;;;;;;;;3.00;1.00;;;;;10.16;78.56;100403.16;5032350;28;8847;-61
2022/09/20 04:04:53;;;;;;;;;3.00;3.00;;;;;10.13;78.88;100412.19;5031302;28;8825;-61
2022/09/20 04:07:22;;;;;;;;;3.50;3.50;;;;;10.09;79.03;100413.34;5031419;28;8837;-62
2022/09/20 04:09:50;;;;;;;;;3.00;3.00;;;;;10.06;79.13;100413.56;5031237;28;8833;-62
2022/09/20 04:12:17;;;;;;;;;3.50;3.50;;;;;10.04;79.24;100406.66;5032069;28;8837;-61
2022/09/20 04:14:46;;;;;;;;;4.00;4.00;;;;;10.03;79.03;100412.94;5032290;28;8851;-63
2022/09/20 04:17:13;;;;;;;;;1.50;1.50;;;;;10.01;78.85;100410.34;5031803;28;8821;-64
2022/09/20 04:19:41;;;;;;;;;3.00;3.00;;;;;10.00;79.05;100411.31;5031763;28;8821;-63
2022/09/20 04:22:09;;;;;;;;;3.25;3.00;;;;;10.00;79.12;100413.97;5031392;28;8828;-62
2022/09/20 04:24:37;;;;;;;;;4.00;4.00;;;;;10.00;79.39;100415.75;5032056;28;8829;-61
2022/09/20 04:27:04;;;;;;;;;4.00;4.00;;;;;9.98;79.10;100415.91;5032035;28;8832;-64
2022/09/20 04:29:32;;;;;;;;;4.00;3.50;;;;;9.96;79.27;100415.13;5031985;28;9498;-62
2022/09/20 04:32:00;;;;;;;;;4.50;4.50;;;;;9.91;79.12;100419.94;5032381;28;9502;-63
2022/09/20 04:36:27;;;;;;;;;3.50;3.00;;;;;9.88;79.50;100417.47;5031491;28;9503;-63
2022/09/20 04:37:15;;;;;;;;;0.75;0.50;;;;;9.84;79.48;100420.44;5030944;28;8845;-63
2022/09/20 04:39:42;;;;;;;;;6.50;6.25;;;;;9.80;79.40;100422.47;5030251;28;8991;-64
2022/09/20 04:42:10;;;;;;;;;6.00;6.00;;;;;9.81;79.60;100426.00;5030517;28;8858;-62
2022/09/20 04:44:38;;;;;;;;;3.50;3.50;;;;;9.82;79.53;100425.03;5030245;28;8825;-63
2022/09/20 04:47:07;;;;;;;;;6.50;6.00;;;;;9.86;79.24;100432.69;5030795;28;8817;-62
2022/09/20 04:49:34;;;;;;;;;5.00;5.00;;;;;9.91;79.01;100432.38;5031188;28;8837;-62
2022/09/20 04:52:02;;;;;;;;;4.50;4.00;;;;;9.96;79.08;100425.75;5031655;28;8890;-62
2022/09/20 04:54:33;;;;;;;;;4.00;3.75;;;;;10.02;78.58;100428.00;5030043;28;8966;-62
2022/09/20 04:57:03;;;;;;;;;4.00;4.00;;;;;10.08;78.71;100432.94;5030808;28;8837;-62
2022/09/20 04:59:32;;;;;;;;;3.00;3.00;;;;;10.13;78.77;100430.81;5033645;28;8837;-62
2022/09/20 05:02:02;;;;;;;;;2.00;2.00;;;;;10.18;78.47;100428.66;5033393;28;8829;-62
2022/09/20 05:04:29;;;;;;;;;3.50;3.00;;;;;10.22;78.84;100434.63;5032890;28;8821;-62
2022/09/20 05:06:57;;;;;;;;;3.25;3.25;;;;;10.24;78.64;100432.72;5032215;28;8936;-62
2022/09/20 05:09:25;;;;;;;;;3.00;3.00;;;;;10.24;78.73;100438.88;5034645;28;8841;-60
2022/09/20 05:11:53;;;;;;;;;7.50;6.75;;;;;10.24;78.68;100438.88;5035041;28;8845;-61
2022/09/20 05:14:23;;;;;;;;;6.00;6.00;;;;;10.25;78.50;100443.25;5032684;28;8930;-62
2022/09/20 05:16:51;;;;;;;;;4.00;3.25;;;;;10.26;78.29;100441.44;5033044;28;8840;-62
2022/09/20 05:19:19;;;;;;;;;5.00;4.00;;;;;10.28;78.62;100440.38;5032983;28;8853;-62
2022/09/20 05:21:47;;;;;;;;;1.00;0.00;;;;;10.32;78.68;100438.38;5032805;28;9498;-62
2022/09/20 05:24:14;;;;;;;;;7.00;4.50;;;;;10.37;78.44;100442.41;5032209;28;8910;-62
2022/09/20 05:26:43;;;;;;;;;7.50;6.50;;;;;10.42;78.00;100442.94;5032724;28;8860;-62
2022/09/20 05:29:10;;;;;;;;;3.75;3.75;;;;;10.46;78.29;100444.41;5032656;28;9541;-62
2022/09/20 05:31:39;;;;;;;;;3.00;3.00;;;;;10.50;78.23;100445.91;5032891;28;9526;-61
2022/09/20 05:34:07;;;;;;;;;5.00;5.00;;;;;10.53;77.70;100442.13;5032647;28;8847;-62
2022/09/20 05:36:34;;;;;;;;;4.00;4.00;;;;;10.55;78.37;100448.22;5032846;28;8964;-61
2022/09/20 05:39:02;;;;;;;;;3.50;3.50;;;;;10.57;78.12;100444.50;5033492;28;8857;-62
2022/09/20 05:41:30;;;;;;;;;7.00;6.00;;;;;10.58;77.98;100443.53;5033842;28;8853;-61
2022/09/20 05:43:58;;;;;;;;;4.50;4.50;;;;;10.60;78.40;100446.94;5033405;28;8821;-62
2022/09/20 05:46:26;;;;;;;;;6.50;6.00;;;;;10.64;78.04;100447.56;5033460;28;8829;-62
2022/09/20 05:48:53;;;;;;;;;4.50;4.50;;;;;10.68;78.34;100447.22;5033314;28;9682;-63
2022/09/20 05:51:21;;;;;;;;;9.50;5.50;;;;;10.72;77.86;100448.72;5032471;28;8824;-63
2022/09/20 05:53:49;;;;;;;;;6.00;5.00;;;;;10.76;77.98;100447.53;5032081;28;8951;-62
2022/09/20 05:56:17;;;;;;;;;5.00;4.00;;;;;10.80;77.39;100453.50;5031753;28;8844;-63
2022/09/20 05:58:44;;;;;;;;;8.00;5.50;;;;;10.84;77.78;100447.81;5031517;28;8971;-61
2022/09/20 06:01:13;;;;;;;;;4.00;4.00;;;;;10.87;77.66;100447.63;5031633;28;8917;-62
2022/09/20 06:03:41;;;;;;;;;8.00;6.50;;;;;10.89;77.16;100451.00;5030926;28;8840;-62
2022/09/20 06:06:09;;;;;;;;;5.50;4.25;;;;;10.91;77.63;100451.75;5030782;28;8905;-62
2022/09/20 06:08:37;;;;;;;;;6.50;5.50;;;;;10.92;77.94;100453.44;5030661;28;8813;-62
2022/09/20 06:11:05;;;;;;;;;6.25;6.25;;;;;10.97;77.82;100464.63;5029384;28;8865;-61
2022/09/20 06:13:33;;;;;;;;;6.00;3.75;;;;;11.00;77.31;100467.06;5030449;28;8829;-62
2022/09/20 06:16:00;;;;;;;;;4.00;4.00;;;;;11.05;77.53;100472.91;5030448;28;8849;-61
2022/09/20 06:18:28;;;;;;;;;6.00;6.00;;;;;11.13;77.57;100475.00;5031143;28;8833;-62
2022/09/20 06:20:56;;;;;;;;;5.00;3.50;;;;;11.19;77.25;100477.22;5032057;28;8837;-61
2022/09/20 06:23:24;;;;;;;;;6.75;6.25;;;;;11.24;76.89;100475.91;5032383;28;8848;-61
2022/09/20 06:25:54;;;;;;;;;5.00;5.00;;;;;11.30;77.14;100475.47;5031680;28;8828;-62
2022/09/20 06:28:22;;;;;;;;;6.00;5.00;;;;;11.36;76.86;100480.34;5032252;28;8833;-63
2022/09/20 06:30:50;;;;;;;;;6.25;6.25;;;;;11.42;77.20;100479.03;5031203;28;8837;-61
2022/09/20 06:33:19;;;;;;;;;6.50;6.50;;;;;11.52;76.62;100480.06;5032150;28;8825;-61
2022/09/20 06:35:46;;;;;;;;;4.00;4.00;;;;;11.61;76.48;100476.75;5031731;28;8869;-62
2022/09/20 06:43:44;;;;;;;;;5.50;3.75;;;;;11.80;75.91;100477.03;5031594;28;8847;-62
2022/09/20 06:46:14;;;;;;;;;7.00;6.00;;;;;11.84;76.11;100474.00;5030681;28;8833;-62
2022/09/20 06:48:42;;;;;;;;;6.00;6.00;;;;;11.90;76.32;100484.22;5030865;28;8844;-61
2022/09/20 06:51:09;;;;;;;;;6.50;6.50;;;;;11.95;75.97;100482.91;5032389;28;8913;-62
2022/09/20 06:53:38;;;;;;;;;3.50;3.50;;;;;12.00;76.13;100487.91;5032082;28;8828;-62
2022/09/20 06:56:07;;;;;;;;;8.00;7.00;;;;;12.05;75.78;100493.72;5032226;28;9526;-61
2022/09/20 06:58:34;;;;;;;;;3.00;3.00;;;;;12.04;76.00;100486.69;5031082;28;8913;-62
2022/09/20 07:01:02;;;;;;;;;6.25;5.00;;;;;12.04;75.79;100492.91;5029930;28;8829;-62
2022/09/20 07:03:31;;;;;;;;;6.00;4.00;;;;;12.06;76.15;100482.94;5029935;28;8844;-61
2022/09/20 07:06:00;;;;;;;;;4.50;4.50;;;;;12.12;75.46;100492.28;5029728;28;8825;-62
2022/09/20 07:08:28;;;;;;;;;5.00;5.00;;;;;12.16;75.97;100499.09;5030403;28;8925;-61
2022/09/20 07:10:55;;;;;;;;;7.00;6.75;;;;;12.21;75.38;100496.91;5030577;28;8869;-63
2022/09/20 07:13:24;;;;;;;;;6.00;6.00;;;;;12.28;75.60;100500.81;5030619;28;9619;-62
2022/09/20 07:15:51;;;;;;;;;9.00;6.25;;;;;12.31;75.99;100498.75;5031310;28;9494;-61
2022/09/20 07:18:19;;;;;;;;;5.00;5.00;;;;;12.35;75.83;100500.22;5031010;28;8841;-62
2022/09/20 07:20:47;;;;;;;;;5.00;5.00;;;;;12.41;75.91;100504.25;5031603;28;8837;-61
2022/09/20 07:23:15;;;;;;;;;6.00;6.00;;;;;12.50;75.19;100499.03;5030678;28;8832;-62
2022/09/20 07:25:42;;;;;;;;;6.00;6.00;;;;;12.56;75.67;100503.91;5030796;28;8821;-61
2022/09/20 07:28:10;;;;;;;;;3.25;3.00;;;;;12.61;75.65;100503.53;5030190;28;8909;-61
2022/09/20 07:30:38;;;;;;;;;6.50;6.50;;;;;12.68;74.80;100507.41;5029504;28;8913;-62
2022/09/20 07:33:06;;;;;;;;;6.50;6.00;;;;;12.75;75.13;100513.97;5029310;28;9483;-61
2022/09/20 07:35:35;;;;;;;;;6.50;6.25;;;;;12.76;74.71;100505.81;5028627;28;8813;-61
2022/09/20 07:38:03;;;;;;;;;6.00;4.50;;;;;12.75;75.06;100513.97;5030567;28;8837;-61
2022/09/20 07:40:32;;;;;;;;;6.00;3.50;;;;;12.67;74.86;100511.03;5029370;28;8877;-62
2022/09/20 07:43:00;;;;;;;;;3.25;3.25;;;;;12.59;75.63;100518.81;5029575;28;8964;-62
2022/09/20 07:45:29;;;;;;;;;6.50;6.50;;;;;12.49;75.96;100517.84;5029636;28;8840;-63
2022/09/20 07:47:57;;;;;;;;;5.00;5.00;;;;;12.49;75.63;100521.38;5029858;28;8885;-61
2022/09/20 07:50:25;;;;;;;;;6.25;4.00;;;;;12.57;75.54;100518.97;5030107;28;8852;-62
2022/09/20 07:52:53;;;;;;;;;3.00;2.00;;;;;12.66;75.38;100515.56;5029921;28;8941;-62
2022/09/20 07:55:20;;;;;;;;;6.00;6.00;;;;;12.76;75.37;100521.03;5029227;28;8844;-61
2022/09/20 07:57:49;;;;;;;;;4.50;4.00;;;;;12.87;74.79;100518.34;5030551;28;8829;-62
2022/09/20 08:00:17;;;;;;;;;6.50;6.50;;;;;12.98;74.90;100516.53;5029928;28;8845;-65
2022/09/20 08:02:45;;;;;;;;;8.50;6.75;;;;;13.09;74.23;100523.69;5029918;28;8898;-62
2022/09/20 08:05:12;;;;;;;;;4.00;3.25;;;;;13.23;74.51;100516.25;5030293;28;8818;-62
2022/09/20 08:07:40;;;;;;;;;4.00;4.00;;;;;13.40;74.29;100518.41;5029611;28;8825;-63
2022/09/20 08:10:08;;;;;;;;;6.25;6.25;;;;;13.63;74.16;100521.84;5028368;28;8845;-62
2022/09/20 08:12:36;;;;;;;;;4.50;4.00;;;;;13.84;73.25;100512.03;5028482;28;8837;-62
2022/09/20 08:15:23;;;;;;;;;3.25;3.25;;;;;14.03;72.76;100512.22;5030824;28;8979;-61
2022/09/20 08:17:51;;;;;;;;;3.00;3.00;;;;;14.14;72.51;100517.50;5030495;28;8933;-63
2022/09/20 08:20:19;;;;;;;;;3.75;2.50;;;;;14.19;72.43;100512.63;5030195;28;8845;-62
2022/09/20 08:22:47;;;;;;;;;3.75;3.25;;;;;14.22;72.31;100518.56;5030397;28;8956;-63
2022/09/20 08:25:35;;;;;;;;;3.00;3.00;;;;;14.26;72.92;100522.69;5030259;28;8865;-62
2022/09/20 08:28:02;;;;;;;;;1.00;1.00;;;;;14.26;72.54;100520.00;5029607;28;8849;-62
2022/09/20 08:30:30;;;;;;;;;1.00;0.50;;;;;14.33;72.45;100520.34;5029892;28;8829;-62
2022/09/20 08:32:58;;;;;;;;;1.00;1.00;;;;;14.41;72.60;100525.88;5030194;28;8874;-62
2022/09/20 08:35:28;;;;;;;;;1.00;1.00;;;;;14.47;72.59;100515.47;5032913;28;8859;-62
2022/09/20 08:37:56;;;;;;;;;2.00;1.50;;;;;14.50;72.11;100519.72;5033049;28;8837;-63
2022/09/20 08:40:43;;;;;;;;;1.00;1.00;;;;;14.53;71.90;100522.13;5033521;28;8988;-62
2022/09/20 08:43:12;;;;;;;;;1.50;1.50;;;;;14.57;72.26;100528.94;5031632;28;8833;-61
2022/09/20 08:45:39;;;;;;;;;1.00;1.00;;;;;14.64;72.00;100519.38;5033244;28;8825;-65
2022/09/20 08:48:07;;;;;;;;;2.50;0.75;;;;;14.77;71.88;100520.00;5032272;28;8829;-62
2022/09/20 08:50:35;;;;;;;;;1.00;1.00;;;;;14.88;71.98;100523.44;5032071;28;8837;-63
2022/09/20 08:53:04;;;;;;;;;2.20;2.20;;;;;14.95;71.94;100527.28;5032500;28;9627;-62
2022/09/20 08:55:33;;;;;;;;;1.00;1.00;;;;;15.04;71.56;100528.31;5031102;28;8829;-62
2022/09/20 08:58:04;;;;;;;;;0.40;0.00;;;;;15.09;71.27;100532.25;5031013;28;8841;-61
2022/09/20 09:00:35;;;;;;;;;1.00;0.00;;;;;15.15;71.57;100537.09;5031189;28;8852;-62
2022/09/20 09:03:02;;;;;;;;;0.60;0.60;;;;;15.18;71.31;100535.97;5032008;28;8816;-61
2022/09/20 09:05:31;;;;;;;;;0.00;0.00;;;;;15.20;71.18;100534.00;5032207;28;8828;-62
2022/09/20 09:08:00;;;;;;;;;0.80;0.80;;;;;15.23;71.42;100539.06;5031035;28;8845;-61
2022/09/20 09:10:27;;;;;;;;;1.00;1.00;;;;;15.25;70.88;100532.59;5029774;28;8872;-63
2022/09/20 09:12:55;;;;;;;;;1.00;0.00;;;;;15.29;70.81;100536.72;5029351;28;8841;-62
2022/09/20 09:15:23;;;;;;;;;0.00;0.00;;;;;15.35;70.80;100538.03;5028869;28;8885;-62
2022/09/20 09:17:50;;;;;;;;;1.00;1.00;;;;;15.38;70.86;100537.75;5030676;28;9616;-61
2022/09/20 09:20:20;;;;;;;;;0.00;0.00;;;;;15.40;70.64;100535.78;5029337;28;8844;-62
2022/09/20 09:22:48;;;;;;;;;1.00;1.00;;;;;15.34;70.66;100539.88;5029679;28;8933;-63
2022/09/20 09:25:16;;;;;;;;;0.60;0.60;;;;;15.33;70.80;100543.53;5030142;28;8833;-61
2022/09/20 09:27:43;;;;;;;;;0.00;0.00;;;;;15.38;70.92;100537.75;5029333;28;8833;-61
2022/09/20 09:30:11;;;;;;;;;0.60;0.00;;;;;15.57;70.79;100540.47;5029769;28;8837;-61
2022/09/20 09:32:39;;;;;;;;;0.80;0.80;;;;;15.75;70.19;100546.84;5029994;28;8837;-62
2022/09/20 09:35:08;;;;;;;;;0.00;0.00;;;;;15.82;69.73;100542.63;5029289;28;8928;-62
2022/09/20 09:37:35;;;;;;;;;1.00;1.00;;;;;15.91;69.96;100544.47;5030400;28;8876;-63
2022/09/20 09:40:03;;;;;;;;;1.40;1.40;;;;;15.91;70.02;100542.63;5029425;28;9579;-62
2022/09/20 09:42:32;;;;;;;;;1.00;0.00;;;;;15.83;69.71;100549.69;5029936;28;8829;-63
2022/09/20 09:45:00;;;;;;;;;1.00;0.00;;;;;15.81;69.38;100541.78;5030430;28;8833;-62
2022/09/20 09:47:27;;;;;;;;;0.20;0.20;;;;;15.92;69.79;100540.81;5031737;28;8844;-62
2022/09/20 09:49:55;;;;;;;;;1.00;1.00;;;;;16.13;69.64;100545.03;5031346;28;8841;-62
2022/09/20 09:52:32;;;;;;;;;0.40;0.20;;;;;16.30;68.60;100541.59;5029822;28;8924;-62
2022/09/20 09:55:00;;;;;;;;;0.80;0.80;;;;;16.29;69.00;100543.47;5029890;28;8866;-62
2022/09/20 09:57:32;;;;;;;;;0.00;0.00;;;;;16.22;69.27;100551.41;5029825;28;8829;-61
2022/09/20 10:00:00;;;;;;;;;0.00;0.00;;;;;16.14;69.05;100549.41;5028911;28;8844;-62
2022/09/20 10:02:32;;;;;;;;;0.00;0.00;;;;;16.11;69.67;100551.53;5028628;28;8921;-61
2022/09/20 10:05:01;;;;;;;;;2.60;1.00;;;;;16.07;69.92;100550.13;5028251;28;8853;-64
2022/09/20 10:07:28;;;;;;;;;0.80;0.00;;;;;16.04;69.17;100547.72;5027852;28;9602;-63
2022/09/20 10:09:56;;;;;;;;;0.00;0.00;;;;;16.00;69.84;100541.78;5027565;28;8905;-62
2022/09/20 10:12:25;;;;;;;;;0.40;0.00;;;;;15.95;69.58;100548.56;5026462;28;8832;-61
2022/09/20 10:14:52;;;;;;;;;0.00;0.00;;;;;15.89;69.84;100539.25;5027066;28;8833;-61
2022/09/20 10:17:20;;;;;;;;;0.00;0.00;;;;;15.79;70.13;100554.47;5025642;28;8821;-62
2022/09/20 10:19:48;;;;;;;;;0.00;0.00;;;;;15.77;69.76;100543.03;5026052;28;9510;-61
2022/09/20 10:22:18;;;;;;;;;0.60;0.60;;;;;16.42;68.80;100538.66;5026890;28;8917;-61
2022/09/20 10:24:45;;;;;;;;;0.00;0.00;;;;;17.77;66.01;100533.38;5027399;28;8934;-62
2022/09/20 10:27:18;;;;;;;;;0.00;0.00;;;;;18.41;63.90;100530.44;5026271;28;8837;-62
2022/09/20 10:29:46;;;;;;;;;1.00;1.00;;;;;18.36;63.98;100536.28;5026102;28;8853;-62
2022/09/20 10:32:13;;;;;;;;;0.00;0.00;;;;;18.14;64.92;100539.44;5028157;28;8836;-62
2022/09/20 10:34:41;;;;;;;;;0.00;0.00;;;;;18.05;65.10;100529.59;5027284;28;8833;-63
2022/09/20 10:37:09;;;;;;;;;0.60;0.00;;;;;18.40;64.43;100529.59;5028074;28;8841;-61
2022/09/20 10:39:37;;;;;;;;;0.00;0.00;;;;;18.62;64.06;100531.78;5027864;28;8844;-62
2022/09/20 10:44:50;;;;;;;;;1.00;1.00;;;;;18.99;63.68;100526.06;5026936;28;8841;-62
2022/09/20 10:47:18;;;;;;;;;1.00;0.00;;;;;19.12;63.20;100515.69;5027404;28;8825;-64
2022/09/20 10:49:46;;;;;;;;;0.20;0.00;;;;;19.06;63.12;100521.72;5028289;28;8845;-63
2022/09/20 10:52:17;;;;;;;;;0.00;0.00;;;;;18.84;63.91;100523.16;5027968;28;8844;-64
2022/09/20 10:54:45;;;;;;;;;0.00;0.00;;;;;18.71;63.91;100522.72;5027412;28;8825;-61
2022/09/20 10:57:12;;;;;;;;;0.00;0.00;;;;;18.57;64.27;100522.44;5025668;28;8921;-62
2022/09/20 10:59:41;;;;;;;;;0.60;0.60;;;;;18.39;64.83;100527.91;5026875;28;8849;-61
2022/09/20 11:02:08;;;;;;;;;1.40;0.60;;;;;18.13;64.33;100524.28;5026952;28;8829;-62
2022/09/20 11:04:37;;;;;;;;;0.00;0.00;;;;;17.89;64.69;100521.38;5027966;28;8848;-62
2022/09/20 11:07:04;;;;;;;;;0.60;0.60;;;;;17.77;65.23;100527.16;5027709;28;8833;-61
2022/09/20 11:09:32;;;;;;;;;0.00;0.00;;;;;17.78;65.60;100542.31;5028088;28;8894;-62
2022/09/20 11:12:00;;;;;;;;;0.60;0.60;;;;;17.84;64.94;100529.06;5028747;28;8849;-61
2022/09/20 11:14:30;;;;;;;;;0.40;0.40;;;;;17.83;64.68;100530.06;5028214;28;9234;-63
2022/09/20 11:16:59;;;;;;;;;0.00;0.00;;;;;17.82;65.05;100533.75;5029467;28;8840;-61
2022/09/20 11:19:26;;;;;;;;;0.20;0.20;;;;;17.91;64.64;100534.69;5028564;28;8837;-64
2022/09/20 11:21:54;;;;;;;;;0.00;0.00;;;;;18.04;64.34;100537.84;5029649;28;8832;-62
2022/09/20 11:24:22;;;;;;;;;0.00;0.00;;;;;18.31;63.55;100538.63;5028373;28;8845;-62
2022/09/20 11:26:50;;;;;;;;;0.00;0.00;;;;;18.45;62.88;100535.34;5029469;28;8922;-63
2022/09/20 11:29:18;;;;;;;;;0.00;0.00;;;;;18.52;63.02;100538.28;5028231;28;8913;-62
2022/09/20 11:31:46;;;;;;;;;0.00;0.00;;;;;18.47;63.37;100535.19;5028573;28;8905;-62
2022/09/20 11:34:13;;;;;;;;;1.00;1.00;;;;;18.44;63.15;100535.53;5027112;28;9130;-62
2022/09/20 11:36:41;;;;;;;;;0.00;0.00;;;;;18.34;63.59;100535.63;5026771;28;8849;-61
2022/09/20 11:39:09;;;;;;;;;0.20;0.20;;;;;18.27;63.65;100539.91;5026001;28;8848;-63
2022/09/20 11:41:37;;;;;;;;;0.80;0.00;;;;;18.12;63.84;100546.84;5025696;28;8881;-62
2022/09/20 11:44:05;;;;;;;;;1.80;1.40;;;;;17.96;64.33;100544.00;5025238;28;8829;-62
2022/09/20 11:46:34;;;;;;;;;0.80;0.00;;;;;17.90;64.12;100535.72;5025805;28;9509;-61